Airfield :
LOGIN :

Register | Disclaimer

   EN    FR    IT 

 










Legend :    VFR   Marginal VFR   IFR   Intensive IFR   Very Intensive IFR
Visi :
Ceiling :
>= 8 km
>= 3000ft
5 to 8 km
1000 to 3000 ft
1500m to 5 km
500 to 1000 ft
800 to 1500m
200 to 500 ft
< 800m
< 200 ft
Symbols :   Thunderstorms  Fog  Heavy snow  Heavy precipitations  Wind > 20 kt
SIGMETs :     Misc.  Thunderstorms  Icing  Turbulence  Mountain Waves  Volcanic Ashes







- Airport Elevation : 1213 ft
- IATA code : SCQ


LEST - Santiago de Compostela

CURRENT METAR :
  • 190200Z 21005KT 160V260 3200 BR SCT002 OVC003 07/07 Q1016 TEMPO 0800 BCFG

EXPIRED METARs :
  • 190130Z 20006KT 160V240 3200 BR BKN003 OVC005 07/07 Q1016 TEMPO 0800 BCFG
  • 190100Z 21004KT 150V280 2800 -DZ BKN002 OVC006 07/07 Q1016 TEMPO 0800 BCFG
  • 190030Z 21005KT 160V240 2800 -DZ BR BKN002 OVC006 07/07 Q1017 TEMPO 0800 BCFG
  • 190000Z 19006KT 160V240 2200 -DZ BR FEW002 BKN003 OVC007 07/07 Q1017 TEMPO 0800 BCFG
  • 182330Z 22005KT 190V260 2800 -DZ BR SCT002 OVC003 07/07 Q1017 TEMPO 0800 BCFG
  • 182324Z 23005KT 190V270 3500 -DZ BR SCT002 BKN003 BKN010 07/07 Q1018 TEMPO 0800 BCFG

TAF TAF LEST
Valid from the 19 at 00:00 until the 20 at 00:00 UTC


182300Z 1900/1924 19007KT 8000 SCT015 BKN030 TX14/1914Z TN07/1906Z
TEMPO 1900/1921 3000 RA SHRA BR BKN005 BKN010 SCT030TCU
TEMPO 1900/1912 1500 BCFG BKN002
PROB40
TEMPO 1900/1912 0800 BCFG BKN002
PROB30
TEMPO 1900/1909 0350 BCFG BKN001
PROB40
TEMPO 1912/1918 22015G25KT
BECMG 1918/1921 35010KT
TEMPO 1921/1924 3000 -RA BR BKN005 BKN010
No reported NOTAMs for that airfield.



MET'MAP, your aeronautical weather chart ! - Copyright ORBIFLY December 2007 - Disclaimer

ORBIFLY MET'MAP TEAM :

Programming & Development : Alexandra Zaïnal
Concept & Development : Baudouin d'Aumeries
Co-Development & Prog : Marc-Olivier Méhu
Technical & hardware support : Manuel Goepfert

Contact : metmap@orbifly.com




SOURCES & CREDITS :

   NOAA